sensor_id;sensor_type;location;lat;lon;timestamp;pressure;altitude;pressure_sealevel;temperature;humidity
34197;BME280;36594;45.192;5.722;2023-05-08T00:01:47;99518.00;;;26.06;37.80
34197;BME280;36594;45.192;5.722;2023-05-08T00:04:35;99521.59;;;26.06;37.83
34197;BME280;36594;45.192;5.722;2023-05-08T00:07:23;99524.38;;;26.09;37.74
34197;BME280;36594;45.192;5.722;2023-05-08T00:10:12;99519.64;;;26.07;37.76
34197;BME280;36594;45.192;5.722;2023-05-08T00:13:00;99517.16;;;26.05;37.78
34197;BME280;36594;45.192;5.722;2023-05-08T00:15:48;99516.08;;;26.06;37.78
34197;BME280;36594;45.192;5.722;2023-05-08T00:18:37;99514.41;;;26.05;37.78
34197;BME280;36594;45.192;5.722;2023-05-08T00:21:26;99511.95;;;26.06;37.76
34197;BME280;36594;45.192;5.722;2023-05-08T00:24:14;99502.59;;;26.07;37.72
34197;BME280;36594;45.192;5.722;2023-05-08T00:27:02;99497.28;;;26.01;37.74
34197;BME280;36594;45.192;5.722;2023-05-08T00:29:51;99498.45;;;26.07;37.74
34197;BME280;36594;45.192;5.722;2023-05-08T00:32:39;99504.80;;;26.08;37.72
34197;BME280;36594;45.192;5.722;2023-05-08T00:35:28;99505.61;;;26.06;37.76
34197;BME280;36594;45.192;5.722;2023-05-08T00:38:17;99504.50;;;26.07;37.80
34197;BME280;36594;45.192;5.722;2023-05-08T00:41:05;99507.02;;;26.08;37.72
34197;BME280;36594;45.192;5.722;2023-05-08T00:43:53;99505.07;;;26.06;37.70
34197;BME280;36594;45.192;5.722;2023-05-08T00:46:43;99500.94;;;26.06;37.75
34197;BME280;36594;45.192;5.722;2023-05-08T00:49:32;99495.94;;;26.03;37.80
34197;BME280;36594;45.192;5.722;2023-05-08T00:52:22;99497.31;;;26.03;37.84
34197;BME280;36594;45.192;5.722;2023-05-08T00:55:10;99496.20;;;26.04;37.83
34197;BME280;36594;45.192;5.722;2023-05-08T00:57:59;99495.44;;;26.06;37.79
34197;BME280;36594;45.192;5.722;2023-05-08T01:00:50;99492.62;;;26.01;37.87
34197;BME280;36594;45.192;5.722;2023-05-08T01:03:41;99490.97;;;26.03;37.90
34197;BME280;36594;45.192;5.722;2023-05-08T01:06:31;99487.68;;;26.03;37.81
34197;BME280;36594;45.192;5.722;2023-05-08T01:09:21;99491.52;;;26.02;37.88
34197;BME280;36594;45.192;5.722;2023-05-08T01:12:25;99497.05;;;26.05;37.84
34197;BME280;36594;45.192;5.722;2023-05-08T01:15:18;99491.52;;;26.02;37.84
34197;BME280;36594;45.192;5.722;2023-05-08T01:18:18;99494.23;;;26.00;37.92
34197;BME280;36594;45.192;5.722;2023-05-08T01:21:13;99492.55;;;25.96;37.99
34197;BME280;36594;45.192;5.722;2023-05-08T01:33:45;99495.54;;;25.92;38.12
34197;BME280;36594;45.192;5.722;2023-05-08T01:36:39;99496.65;;;25.94;38.13
34197;BME280;36594;45.192;5.722;2023-05-08T01:39:50;99492.52;;;25.94;38.14
34197;BME280;36594;45.192;5.722;2023-05-08T01:42:52;99495.81;;;25.93;38.13
34197;BME280;36594;45.192;5.722;2023-05-08T01:45:44;99492.78;;;25.92;38.20
34197;BME280;36594;45.192;5.722;2023-05-08T01:48:37;99491.11;;;25.91;38.17
34197;BME280;36594;45.192;5.722;2023-05-08T01:51:27;99491.44;;;25.95;38.11
34197;BME280;36594;45.192;5.722;2023-05-08T01:54:20;99482.58;;;25.93;38.16
34197;BME280;36594;45.192;5.722;2023-05-08T01:57:10;99483.99;;;25.95;38.13
34197;BME280;36594;45.192;5.722;2023-05-08T02:00:02;99481.51;;;25.94;38.16
34197;BME280;36594;45.192;5.722;2023-05-08T02:02:53;99478.25;;;25.97;38.14
34197;BME280;36594;45.192;5.722;2023-05-08T02:05:45;99480.16;;;25.96;38.14
34197;BME280;36594;45.192;5.722;2023-05-08T02:08:35;99480.97;;;25.94;38.16
34197;BME280;36594;45.192;5.722;2023-05-08T02:11:25;99481.23;;;25.95;38.15
34197;BME280;36594;45.192;5.722;2023-05-08T02:14:13;99481.54;;;25.96;38.14
34197;BME280;36594;45.192;5.722;2023-05-08T02:17:04;99481.51;;;25.94;38.15
34197;BME280;36594;45.192;5.722;2023-05-08T02:19:57;99482.65;;;25.98;38.16
34197;BME280;36594;45.192;5.722;2023-05-08T02:22:49;99484.02;;;25.98;38.13
34197;BME280;36594;45.192;5.722;2023-05-08T02:25:39;99482.11;;;25.98;38.08
34197;BME280;36594;45.192;5.722;2023-05-08T02:28:30;99476.88;;;25.97;38.12
34197;BME280;36594;45.192;5.722;2023-05-08T02:31:21;99479.62;;;25.97;38.11
34197;BME280;36594;45.192;5.722;2023-05-08T02:34:12;99482.91;;;25.96;38.12
34197;BME280;36594;45.192;5.722;2023-05-08T02:37:02;99483.72;;;25.94;38.16
34197;BME280;36594;45.192;5.722;2023-05-08T02:39:54;99488.95;;;25.96;38.19
34197;BME280;36594;45.192;5.722;2023-05-08T02:42:44;99483.72;;;25.94;38.19
34197;BME280;36594;45.192;5.722;2023-05-08T02:45:44;99484.26;;;25.94;38.19
34197;BME280;36594;45.192;5.722;2023-05-08T02:49:18;99487.31;;;25.95;38.19
34197;BME280;36594;45.192;5.722;2023-05-08T02:51:43;99481.23;;;25.95;38.20
34197;BME280;36594;45.192;5.722;2023-05-08T02:54:32;99472.71;;;25.94;38.18
34197;BME280;36594;45.192;5.722;2023-05-08T02:57:22;99481.20;;;25.93;38.21
34197;BME280;36594;45.192;5.722;2023-05-08T03:00:19;99481.23;;;25.95;38.22
34197;BME280;36594;45.192;5.722;2023-05-08T03:04:00;99476.88;;;25.97;38.20
34197;BME280;36594;45.192;5.722;2023-05-08T03:06:05;99477.11;;;25.95;38.22
34197;BME280;36594;45.192;5.722;2023-05-08T03:08:55;99472.68;;;25.92;38.25
34197;BME280;36594;45.192;5.722;2023-05-08T03:11:46;99475.47;;;25.94;38.23
34197;BME280;36594;45.192;5.722;2023-05-08T03:14:39;99477.38;;;25.94;38.25
34197;BME280;36594;45.192;5.722;2023-05-08T03:17:29;99476.00;;;25.94;38.24
34197;BME280;36594;45.192;5.722;2023-05-08T03:20:19;99472.17;;;25.95;38.25
34197;BME280;36594;45.192;5.722;2023-05-08T03:23:10;99468.28;;;25.93;38.25
34197;BME280;36594;45.192;5.722;2023-05-08T03:26:00;99464.19;;;25.96;38.23
34197;BME280;36594;45.192;5.722;2023-05-08T03:28:51;99465.56;;;25.96;38.25
34197;BME280;36594;45.192;5.722;2023-05-08T03:31:43;99463.65;;;25.96;38.23
34197;BME280;36594;45.192;5.722;2023-05-08T03:34:32;99462.27;;;25.96;38.23
34197;BME280;36594;45.192;5.722;2023-05-08T03:37:22;99461.97;;;25.95;38.22
34197;BME280;36594;45.192;5.722;2023-05-08T03:40:11;99460.90;;;25.96;38.23
34197;BME280;36594;45.192;5.722;2023-05-08T03:43:01;99461.97;;;25.95;38.25
34197;BME280;36594;45.192;5.722;2023-05-08T03:45:50;99458.45;;;25.97;38.25
34197;BME280;36594;45.192;5.722;2023-05-08T03:48:40;99465.33;;;25.97;38.24
34197;BME280;36594;45.192;5.722;2023-05-08T03:51:30;99467.24;;;25.97;38.27
34197;BME280;36594;45.192;5.722;2023-05-08T03:54:19;99477.41;;;25.96;38.28
34197;BME280;36594;45.192;5.722;2023-05-08T03:57:09;99470.23;;;25.95;38.29
34197;BME280;36594;45.192;5.722;2023-05-08T04:00:05;99470.83;;;25.97;38.28
34197;BME280;36594;45.192;5.722;2023-05-08T04:03:08;99468.05;;;25.95;38.31
34197;BME280;36594;45.192;5.722;2023-05-08T04:05:56;99467.20;;;25.94;38.30
34197;BME280;36594;45.192;5.722;2023-05-08T04:08:48;99475.73;;;25.95;38.30
34197;BME280;36594;45.192;5.722;2023-05-08T04:14:35;99467.20;;;25.94;38.34
34197;BME280;36594;45.192;5.722;2023-05-08T04:17:32;99469.13;;;25.94;38.34
34197;BME280;36594;45.192;5.722;2023-05-08T04:20:18;99469.42;;;25.95;38.32
34197;BME280;36594;45.192;5.722;2023-05-08T04:23:08;99481.20;;;25.93;38.36
34197;BME280;36594;45.192;5.722;2023-05-08T04:25:59;99480.13;;;25.94;38.32
34197;BME280;36594;45.192;5.722;2023-05-08T04:28:50;99483.45;;;25.96;38.33
34197;BME280;36594;45.192;5.722;2023-05-08T04:31:41;99482.08;;;25.96;38.33
34197;BME280;36594;45.192;5.722;2023-05-08T04:34:31;99486.20;;;25.96;38.30
34197;BME280;36594;45.192;5.722;2023-05-08T04:37:28;99480.73;;;25.98;38.28
34197;BME280;36594;45.192;5.722;2023-05-08T04:40:18;99476.03;;;25.96;38.31
34197;BME280;36594;45.192;5.722;2023-05-08T04:43:07;99476.58;;;25.96;38.28
34197;BME280;36594;45.192;5.722;2023-05-08T04:45:57;99474.13;;;25.97;38.33
34197;BME280;36594;45.192;5.722;2023-05-08T04:48:46;99477.41;;;25.96;38.33
34197;BME280;36594;45.192;5.722;2023-05-08T04:51:34;99476.03;;;25.96;38.31
34197;BME280;36594;45.192;5.722;2023-05-08T04:54:23;99478.78;;;25.96;38.29
34197;BME280;36594;45.192;5.722;2023-05-08T04:57:11;99483.48;;;25.98;38.31
34197;BME280;36594;45.192;5.722;2023-05-08T05:00:01;99484.59;;;26.00;38.30
34197;BME280;36594;45.192;5.722;2023-05-08T05:02:49;99478.28;;;25.99;38.27
34197;BME280;36594;45.192;5.722;2023-05-08T05:05:38;99480.73;;;25.98;38.29
34197;BME280;36594;45.192;5.722;2023-05-08T05:08:27;99482.68;;;26.00;38.26
34197;BME280;36594;45.192;5.722;2023-05-08T05:11:16;99489.06;;;26.03;38.22
34197;BME280;36594;45.192;5.722;2023-05-08T05:14:05;99481.07;;;26.04;38.16
34197;BME280;36594;45.192;5.722;2023-05-08T05:16:55;99493.19;;;26.03;38.14
34197;BME280;36594;45.192;5.722;2023-05-08T05:19:43;99491.52;;;26.02;38.19
34197;BME280;36594;45.192;5.722;2023-05-08T05:22:32;99494.23;;;26.00;38.26
34197;BME280;36594;45.192;5.722;2023-05-08T05:25:21;99498.39;;;26.02;38.17
34197;BME280;36594;45.192;5.722;2023-05-08T05:28:10;99495.64;;;26.02;38.15
34197;BME280;36594;45.192;5.722;2023-05-08T05:30:59;99491.52;;;26.02;38.16
34197;BME280;36594;45.192;5.722;2023-05-08T05:33:48;99495.91;;;26.01;38.12
34197;BME280;36594;45.192;5.722;2023-05-08T05:36:37;99504.20;;;26.03;38.11
34197;BME280;36594;45.192;5.722;2023-05-08T05:39:25;99512.13;;;26.00;38.17
34197;BME280;36594;45.192;5.722;2023-05-08T05:42:14;99513.53;;;26.02;38.13
34197;BME280;36594;45.192;5.722;2023-05-08T05:45:04;99512.69;;;25.99;38.14
34197;BME280;36594;45.192;5.722;2023-05-08T05:47:53;99511.78;;;25.94;38.17
34197;BME280;36594;45.192;5.722;2023-05-08T05:50:42;99515.61;;;25.90;38.16
34197;BME280;36594;45.192;5.722;2023-05-08T05:53:32;99517.45;;;25.85;38.17
34197;BME280;36594;45.192;5.722;2023-05-08T05:56:21;99513.79;;;25.79;38.38
34197;BME280;36594;45.192;5.722;2023-05-08T05:59:10;99519.56;;;25.78;38.39
34197;BME280;36594;45.192;5.722;2023-05-08T06:01:58;99519.06;;;25.81;38.41
34197;BME280;36594;45.192;5.722;2023-05-08T06:04:46;99517.91;;;25.79;38.42
34197;BME280;36594;45.192;5.722;2023-05-08T06:07:36;99519.02;;;25.78;38.53
34197;BME280;36594;45.192;5.722;2023-05-08T06:10:25;99514.59;;;25.77;38.54
34197;BME280;36594;45.192;5.722;2023-05-08T06:13:13;99525.37;;;25.81;38.56
34197;BME280;36594;45.192;5.722;2023-05-08T06:16:02;99531.75;;;25.84;38.52
34197;BME280;36594;45.192;5.722;2023-05-08T06:18:51;99535.07;;;25.86;38.55
34197;BME280;36594;45.192;5.722;2023-05-08T06:21:39;99529.34;;;25.88;38.52
34197;BME280;36594;45.192;5.722;2023-05-08T06:24:28;99522.19;;;25.89;38.55
34197;BME280;36594;45.192;5.722;2023-05-08T06:27:16;99520.55;;;25.91;38.55
34197;BME280;36594;45.192;5.722;2023-05-08T06:30:06;99524.13;;;25.91;38.56
34197;BME280;36594;45.192;5.722;2023-05-08T06:32:56;99528.30;;;25.94;38.52
34197;BME280;36594;45.192;5.722;2023-05-08T06:35:46;99520.31;;;25.92;38.56
34197;BME280;36594;45.192;5.722;2023-05-08T06:38:34;99516.98;;;25.93;38.59
34197;BME280;36594;45.192;5.722;2023-05-08T06:41:23;99516.45;;;25.93;38.50
34197;BME280;36594;45.192;5.722;2023-05-08T06:44:11;99514.84;;;25.95;38.52
34197;BME280;36594;45.192;5.722;2023-05-08T06:47:00;99508.53;;;25.97;38.45
34197;BME280;36594;45.192;5.722;2023-05-08T06:49:48;99496.34;;;25.93;38.43
34197;BME280;36594;45.192;5.722;2023-05-08T06:52:37;99504.40;;;25.97;38.46
34197;BME280;36594;45.192;5.722;2023-05-08T06:55:25;99510.17;;;25.98;38.40
34197;BME280;36594;45.192;5.722;2023-05-08T06:58:13;99510.75;;;25.97;38.44
34197;BME280;36594;45.192;5.722;2023-05-08T07:01:01;99505.23;;;25.97;38.42
34197;BME280;36594;45.192;5.722;2023-05-08T07:03:49;99514.06;;;25.99;38.41
34197;BME280;36594;45.192;5.722;2023-05-08T07:06:38;99512.69;;;25.99;38.40
34197;BME280;36594;45.192;5.722;2023-05-08T07:09:26;99510.48;;;25.99;38.44
34197;BME280;36594;45.192;5.722;2023-05-08T07:12:15;99513.53;;;26.02;38.38
34197;BME280;36594;45.192;5.722;2023-05-08T07:15:04;99510.20;;;26.00;38.37
34197;BME280;36594;45.192;5.722;2023-05-08T07:17:53;99513.80;;;26.01;38.40
34197;BME280;36594;45.192;5.722;2023-05-08T07:20:41;99515.71;;;26.00;38.42
34197;BME280;36594;45.192;5.722;2023-05-08T07:23:30;99511.92;;;26.04;38.37
34197;BME280;36594;45.192;5.722;2023-05-08T07:26:18;99512.73;;;26.04;38.34
34197;BME280;36594;45.192;5.722;2023-05-08T07:29:07;99506.95;;;26.03;38.32
34197;BME280;36594;45.192;5.722;2023-05-08T07:31:56;99505.58;;;26.03;38.37
34197;BME280;36594;45.192;5.722;2023-05-08T07:34:44;99507.76;;;26.01;38.37
34197;BME280;36594;45.192;5.722;2023-05-08T07:37:32;99511.66;;;26.05;38.39
34197;BME280;36594;45.192;5.722;2023-05-08T07:40:20;99509.98;;;26.04;38.42
34197;BME280;36594;45.192;5.722;2023-05-08T07:43:09;99512.22;;;26.07;38.35
34197;BME280;36594;45.192;5.722;2023-05-08T07:45:59;99508.93;;;26.08;38.34
34197;BME280;36594;45.192;5.722;2023-05-08T07:48:47;99507.52;;;26.05;38.42
34197;BME280;36594;45.192;5.722;2023-05-08T07:51:36;99498.99;;;26.07;38.44
34197;BME280;36594;45.192;5.722;2023-05-08T07:54:24;99510.04;;;26.09;38.45
34197;BME280;36594;45.192;5.722;2023-05-08T07:57:13;99509.47;;;26.07;38.46
34197;BME280;36594;45.192;5.722;2023-05-08T08:00:01;99504.23;;;26.06;38.52
34197;BME280;36594;45.192;5.722;2023-05-08T08:02:51;99503.42;;;26.08;38.52
34197;BME280;36594;45.192;5.722;2023-05-08T08:05:40;99502.95;;;26.11;38.51
34197;BME280;36594;45.192;5.722;2023-05-08T08:08:29;99505.14;;;26.12;38.54
34197;BME280;36594;45.192;5.722;2023-05-08T08:11:17;99507.35;;;26.12;38.48
34197;BME280;36594;45.192;5.722;2023-05-08T08:14:05;99500.77;;;26.13;38.47
34197;BME280;36594;45.192;5.722;2023-05-08T08:16:54;99498.86;;;26.14;38.45
34197;BME280;36594;45.192;5.722;2023-05-08T08:19:42;99497.72;;;26.12;38.51
34197;BME280;36594;45.192;5.722;2023-05-08T08:22:31;99496.88;;;26.12;38.51
34197;BME280;36594;45.192;5.722;2023-05-08T08:25:19;99502.95;;;26.11;38.52
34197;BME280;36594;45.192;5.722;2023-05-08T08:28:08;99490.86;;;26.15;38.49
34197;BME280;36594;45.192;5.722;2023-05-08T08:30:56;99494.19;;;26.17;38.42
34197;BME280;36594;45.192;5.722;2023-05-08T08:33:45;99493.11;;;26.18;38.42
34197;BME280;36594;45.192;5.722;2023-05-08T08:36:33;99495.03;;;26.17;38.40
34197;BME280;36594;45.192;5.722;2023-05-08T08:39:21;99491.44;;;26.17;38.42
34197;BME280;36594;45.192;5.722;2023-05-08T08:42:09;99487.61;;;26.18;38.43
34197;BME280;36594;45.192;5.722;2023-05-08T08:44:59;99488.41;;;26.16;38.49
34197;BME280;36594;45.192;5.722;2023-05-08T08:47:47;99493.05;;;26.13;38.57
34197;BME280;36594;45.192;5.722;2023-05-08T08:50:40;99491.73;;;26.18;38.58
34197;BME280;36594;45.192;5.722;2023-05-08T08:53:34;99488.68;;;26.17;38.58
34197;BME280;36594;45.192;5.722;2023-05-08T08:56:23;99479.88;;;26.17;38.61
34197;BME280;36594;45.192;5.722;2023-05-08T08:59:12;99484.55;;;26.17;38.62
34197;BME280;36594;45.192;5.722;2023-05-08T09:02:13;99482.37;;;26.19;38.64
34197;BME280;36594;45.192;5.722;2023-05-08T09:04:58;99480.72;;;26.18;38.64
34197;BME280;36594;45.192;5.722;2023-05-08T09:07:46;99481.80;;;26.17;38.69
34197;BME280;36594;45.192;5.722;2023-05-08T09:10:35;99477.16;;;26.20;38.73
34197;BME280;36594;45.192;5.722;2023-05-08T09:13:24;99480.45;;;26.19;38.75
34197;BME280;36594;45.192;5.722;2023-05-08T09:16:12;99484.05;;;26.20;38.74
34197;BME280;36594;45.192;5.722;2023-05-08T09:19:02;99480.45;;;26.19;38.71
34197;BME280;36594;45.192;5.722;2023-05-08T09:21:50;99487.12;;;26.23;39.40
34197;BME280;36594;45.192;5.722;2023-05-08T09:25:06;99488.20;;;26.22;39.01
34197;BME280;36594;45.192;5.722;2023-05-08T09:27:39;99485.98;;;26.22;38.96
34197;BME280;36594;45.192;5.722;2023-05-08T09:30:27;99522.30;;;26.19;38.90
34197;BME280;36594;45.192;5.722;2023-05-08T09:33:16;99499.72;;;26.19;38.81
34197;BME280;36594;45.192;5.722;2023-05-08T09:36:05;99497.00;;;26.22;38.68
34197;BME280;36594;45.192;5.722;2023-05-08T09:38:55;99500.33;;;26.24;38.58
34197;BME280;36594;45.192;5.722;2023-05-08T09:41:58;99497.57;;;26.24;38.65
34197;BME280;36594;45.192;5.722;2023-05-08T09:44:53;99497.87;;;26.25;38.63
34197;BME280;36594;45.192;5.722;2023-05-08T09:47:46;99495.92;;;26.23;38.63
34197;BME280;36594;45.192;5.722;2023-05-08T09:50:33;99524.14;;;26.11;38.66
34197;BME280;36594;45.192;5.722;2023-05-08T09:53:29;99516.15;;;26.12;38.69
34197;BME280;36594;45.192;5.722;2023-05-08T09:56:12;99508.49;;;26.14;38.78
34197;BME280;36594;45.192;5.722;2023-05-08T09:59:02;99516.45;;;26.13;38.90
34197;BME280;36594;45.192;5.722;2023-05-08T10:01:53;99512.36;;;26.15;38.88
34197;BME280;36594;45.192;5.722;2023-05-08T10:04:42;99512.66;;;26.19;38.87
34197;BME280;36594;45.192;5.722;2023-05-08T10:07:32;99508.86;;;26.22;38.85
34197;BME280;36594;45.192;5.722;2023-05-08T10:10:25;99511.31;;;26.21;38.79
34197;BME280;36594;45.192;5.722;2023-05-08T10:13:13;99508.59;;;26.24;38.83
34197;BME280;36594;45.192;5.722;2023-05-08T10:16:02;99501.16;;;26.24;38.87
34197;BME280;36594;45.192;5.722;2023-05-08T10:18:52;99507.52;;;26.25;38.90
34197;BME280;36594;45.192;5.722;2023-05-08T10:21:45;99511.94;;;26.28;38.94
34197;BME280;36594;45.192;5.722;2023-05-08T10:24:36;99498.44;;;26.27;38.96
34197;BME280;36594;45.192;5.722;2023-05-08T10:27:36;99500.39;;;26.29;39.02
34197;BME280;36594;45.192;5.722;2023-05-08T10:30:22;99500.09;;;26.25;39.03
34197;BME280;36594;45.192;5.722;2023-05-08T10:33:10;99503.14;;;26.29;38.91
34197;BME280;36594;45.192;5.722;2023-05-08T10:36:00;99503.14;;;26.29;38.88
34197;BME280;36594;45.192;5.722;2023-05-08T10:38:49;99504.82;;;26.30;38.81
34197;BME280;36594;45.192;5.722;2023-05-08T10:41:38;99502.94;;;26.35;38.80
34197;BME280;36594;45.192;5.722;2023-05-08T10:44:28;99504.04;;;26.34;38.85
34197;BME280;36594;45.192;5.722;2023-05-08T10:53:37;99498.26;;;26.36;38.85
34197;BME280;36594;45.192;5.722;2023-05-08T10:56:26;99493.27;;;26.33;38.97
34197;BME280;36594;45.192;5.722;2023-05-08T10:59:19;99490.78;;;26.31;39.01
34197;BME280;36594;45.192;5.722;2023-05-08T11:02:07;99492.75;;;26.36;38.85
34197;BME280;36594;45.192;5.722;2023-05-08T11:05:13;99490.84;;;26.36;38.83
34197;BME280;36594;45.192;5.722;2023-05-08T11:08:02;99488.05;;;26.34;39.09
34197;BME280;36594;45.192;5.722;2023-05-08T11:13:58;99487.81;;;26.38;39.15
34197;BME280;36594;45.192;5.722;2023-05-08T11:20:09;99473.20;;;26.37;39.18
34197;BME280;36594;45.192;5.722;2023-05-08T11:22:36;99470.18;;;26.36;39.38
34197;BME280;36594;45.192;5.722;2023-05-08T11:28:25;99458.35;;;26.38;39.70
34197;BME280;36594;45.192;5.722;2023-05-08T11:31:14;99457.25;;;26.37;39.65
34197;BME280;36594;45.192;5.722;2023-05-08T11:34:02;99457.87;;;26.44;39.66
34197;BME280;36594;45.192;5.722;2023-05-08T11:37:00;99453.73;;;26.44;39.57
34197;BME280;36594;45.192;5.722;2023-05-08T11:39:49;99460.86;;;26.42;39.61
34197;BME280;36594;45.192;5.722;2023-05-08T11:42:38;99454.84;;;26.45;39.64
34197;BME280;36594;45.192;5.722;2023-05-08T11:45:26;99462.30;;;26.47;39.58
34197;BME280;36594;45.192;5.722;2023-05-08T11:48:15;99459.84;;;26.48;39.61
34197;BME280;36594;45.192;5.722;2023-05-08T11:51:06;99472.53;;;26.52;39.56
34197;BME280;36594;45.192;5.722;2023-05-08T11:53:56;99454.08;;;26.52;39.55
34197;BME280;36594;45.192;5.722;2023-05-08T11:56:46;99457.91;;;26.51;39.49
34197;BME280;36594;45.192;5.722;2023-05-08T11:59:35;99473.34;;;26.50;39.38
34197;BME280;36594;45.192;5.722;2023-05-08T12:02:40;99466.75;;;26.51;39.51
34197;BME280;36594;45.192;5.722;2023-05-08T12:05:28;99453.79;;;26.49;39.50
34197;BME280;36594;45.192;5.722;2023-05-08T12:08:17;99451.81;;;26.47;39.64
34197;BME280;36594;45.192;5.722;2023-05-08T12:11:06;99450.44;;;26.47;39.60
34197;BME280;36594;45.192;5.722;2023-05-08T12:13:54;99455.44;;;26.50;39.67
34197;BME280;36594;45.192;5.722;2023-05-08T12:16:43;99438.39;;;26.53;39.53
34197;BME280;36594;45.192;5.722;2023-05-08T12:19:31;99450.81;;;26.55;39.56
34197;BME280;36594;45.192;5.722;2023-05-08T12:22:19;99435.34;;;26.52;39.58
34197;BME280;36594;45.192;5.722;2023-05-08T12:25:10;99443.34;;;26.51;39.66
34197;BME280;36594;45.192;5.722;2023-05-08T12:27:59;99444.14;;;26.51;39.56
34197;BME280;36594;45.192;5.722;2023-05-08T12:30:48;99430.89;;;26.46;39.66
34197;BME280;36594;45.192;5.722;2023-05-08T12:33:36;99440.58;;;26.51;39.73
34197;BME280;36594;45.192;5.722;2023-05-08T12:36:25;99442.50;;;26.50;39.69
34197;BME280;36594;45.192;5.722;2023-05-08T12:39:17;99442.25;;;26.54;39.74
34197;BME280;36594;45.192;5.722;2023-05-08T12:42:05;99442.25;;;26.54;39.63
34197;BME280;36594;45.192;5.722;2023-05-08T12:44:54;99440.84;;;26.52;39.58
34197;BME280;36594;45.192;5.722;2023-05-08T12:47:45;99435.08;;;26.51;39.72
34197;BME280;36594;45.192;5.722;2023-05-08T12:50:38;99427.64;;;26.54;39.75
34197;BME280;36594;45.192;5.722;2023-05-08T12:53:29;99423.51;;;26.54;39.77
34197;BME280;36594;45.192;5.722;2023-05-08T12:56:20;99423.80;;;26.55;39.87
34197;BME280;36594;45.192;5.722;2023-05-08T12:59:09;99428.75;;;26.53;39.89
34197;BME280;36594;45.192;5.722;2023-05-08T13:01:57;99424.62;;;26.53;39.98
34197;BME280;36594;45.192;5.722;2023-05-08T13:04:45;99420.21;;;26.54;39.90
34197;BME280;36594;45.192;5.722;2023-05-08T13:07:34;99413.32;;;26.54;39.95
34197;BME280;36594;45.192;5.722;2023-05-08T13:10:23;99414.16;;;26.55;39.92
34197;BME280;36594;45.192;5.722;2023-05-08T13:13:12;99414.14;;;26.52;39.95
34197;BME280;36594;45.192;5.722;2023-05-08T13:16:05;99413.05;;;26.53;40.04
34197;BME280;36594;45.192;5.722;2023-05-08T13:18:54;99402.30;;;26.54;40.04
34197;BME280;36594;45.192;5.722;2023-05-08T13:21:43;99403.41;;;26.56;39.98
34197;BME280;36594;45.192;5.722;2023-05-08T13:24:33;99388.83;;;26.55;40.10
34197;BME280;36594;45.192;5.722;2023-05-08T13:27:22;99384.70;;;26.55;40.05
34197;BME280;36594;45.192;5.722;2023-05-08T13:30:12;99383.56;;;26.54;40.13
34197;BME280;36594;45.192;5.722;2023-05-08T13:33:02;99382.52;;;26.60;40.12
34197;BME280;36594;45.192;5.722;2023-05-08T13:35:50;99367.87;;;26.54;40.12
34197;BME280;36594;45.192;5.722;2023-05-08T13:38:38;99366.52;;;26.57;40.11
34197;BME280;36594;45.192;5.722;2023-05-08T13:41:26;99357.43;;;26.59;40.05
34197;BME280;36594;45.192;5.722;2023-05-08T13:44:15;99359.63;;;26.57;40.22
34197;BME280;36594;45.192;5.722;2023-05-08T13:47:03;99365.13;;;26.57;40.24
34197;BME280;36594;45.192;5.722;2023-05-08T13:49:52;99369.83;;;26.59;40.27
34197;BME280;36594;45.192;5.722;2023-05-08T13:52:41;99362.40;;;26.59;40.19
34197;BME280;36594;45.192;5.722;2023-05-08T13:55:30;99351.36;;;26.57;40.16
34197;BME280;36594;45.192;5.722;2023-05-08T13:58:18;99362.08;;;26.56;40.17
34197;BME280;36594;45.192;5.722;2023-05-08T14:01:06;99349.98;;;26.57;40.27
34197;BME280;36594;45.192;5.722;2023-05-08T14:03:55;99336.50;;;26.58;40.31
34197;BME280;36594;45.192;5.722;2023-05-08T14:06:43;99332.09;;;26.59;40.31
34197;BME280;36594;45.192;5.722;2023-05-08T14:09:33;99340.92;;;26.61;40.22
34197;BME280;36594;45.192;5.722;2023-05-08T14:12:22;99329.91;;;26.61;40.39
34197;BME280;36594;45.192;5.722;2023-05-08T14:15:10;99327.96;;;26.59;40.41
34197;BME280;36594;45.192;5.722;2023-05-08T14:17:58;99329.63;;;26.60;40.34
34197;BME280;36594;45.192;5.722;2023-05-08T14:20:47;99322.73;;;26.58;40.40
34197;BME280;36594;45.192;5.722;2023-05-08T14:23:35;99331.23;;;26.56;40.54
34197;BME280;36594;45.192;5.722;2023-05-08T14:26:25;99331.80;;;26.58;40.51
34197;BME280;36594;45.192;5.722;2023-05-08T14:29:13;99327.12;;;26.59;40.40
34197;BME280;36594;45.192;5.722;2023-05-08T14:32:03;99321.05;;;26.57;40.49
34197;BME280;36594;45.192;5.722;2023-05-08T14:34:52;99308.95;;;26.58;40.54
34197;BME280;36594;45.192;5.722;2023-05-08T14:37:40;99319.40;;;26.58;40.55
34197;BME280;36594;45.192;5.722;2023-05-08T14:40:29;99316.11;;;26.59;40.58
34197;BME280;36594;45.192;5.722;2023-05-08T14:43:17;99306.75;;;26.60;40.66
34197;BME280;36594;45.192;5.722;2023-05-08T14:46:05;99301.52;;;26.61;40.72
34197;BME280;36594;45.192;5.722;2023-05-08T14:48:54;99302.89;;;26.61;40.72
34197;BME280;36594;45.192;5.722;2023-05-08T14:51:42;99312.81;;;26.59;40.79
34197;BME280;36594;45.192;5.722;2023-05-08T14:54:31;99317.78;;;26.60;40.80
34197;BME280;36594;45.192;5.722;2023-05-08T14:57:19;99314.46;;;26.58;40.85
34197;BME280;36594;45.192;5.722;2023-05-08T15:00:09;99314.46;;;26.58;40.85
34197;BME280;36594;45.192;5.722;2023-05-08T15:02:58;99318.02;;;26.58;40.92
34197;BME280;36594;45.192;5.722;2023-05-08T15:05:46;99315.02;;;26.60;40.88
34197;BME280;36594;45.192;5.722;2023-05-08T15:08:35;99311.73;;;26.60;40.90
34197;BME280;36594;45.192;5.722;2023-05-08T15:11:23;99313.91;;;26.61;40.91
34197;BME280;36594;45.192;5.722;2023-05-08T15:14:12;99316.42;;;26.62;40.82
34197;BME280;36594;45.192;5.722;2023-05-08T15:17:01;99318.06;;;26.63;40.85
34197;BME280;36594;45.192;5.722;2023-05-08T15:19:49;99329.63;;;26.63;40.87
34197;BME280;36594;45.192;5.722;2023-05-08T15:22:38;99330.75;;;26.64;40.83
34197;BME280;36594;45.192;5.722;2023-05-08T15:25:27;99329.08;;;26.63;40.89
34197;BME280;36594;45.192;5.722;2023-05-08T15:28:15;99326.08;;;26.65;40.88